Breen, Colorado
Current Conditions -  °F | °C
As of 3:53 AM on Friday 24 Oct 2014 (Local Time) from KDRO Reporting Station
Clear Clear  
Wind Chill: 33°   Ceiling: Unl
Heat Index: 38°   Visibility: 10mi
Dew Point: 33°   Wind: 6mph
Humidity: 83%   Direction: 360°N
Pressure: 30.35"   Gusts: NA
Location:  37.1547°N, 108.155°W
Report Text: KDRO 240953Z AUTO 36005KT 10SM CLR 03/01 A3035 RMK AO2 SLP237 T00330006
Loading
Personal Weather Stations






























Interactive Weather Map
Tropical Storm Tracking
New forecast layout! Learn more

10-Day Weather Forecast

Advertisements
Track Severe Weather on mobile